Time;durP1;ratioP1;P1;durP2;ratioP2;P2;SDS_P1;SDS_P2;PMS_P1;PMS_P2;Temp;Humidity;BMP_temperature;BMP_pressure;BME280_temperature;BME280_humidity;BME280_pressure;Samples;Min_cycle;Max_cycle;Signal;HPM_P1;HPM_P2
2022/02/03 00:08:04;;;;;;;;;2.25;2.00;;;;;;;;5044494;28;45388;-71
2022/02/03 00:10:42;;;;;;;;;2.00;2.00;;;;;;;;5034019;28;45413;-71
2022/02/03 00:24:19;;;;;;;;;1.50;1.50;;;;;;;;5034364;28;45258;-71
2022/02/03 00:26:59;;;;;;;;;3.00;3.00;;;;;;;;5017247;28;45659;-71
2022/02/03 00:29:46;;;;;;;;;0.67;0.67;;;;;;;;5033960;28;45463;-70
2022/02/03 00:32:38;;;;;;;;;1.00;1.00;;;;;;;;5033802;28;45674;-71
2022/02/03 00:48:55;;;;;;;;;1.25;1.25;;;;;;;;4995986;28;45677;-71
2022/02/03 00:51:21;;;;;;;;;2.00;0.00;;;;;;;;4996830;28;45518;-71
2022/02/03 00:53:48;;;;;;;;;1.00;1.00;;;;;;;;5000464;28;45725;-71
2022/02/03 00:56:14;;;;;;;;;1.00;1.00;;;;;;;;4980218;28;45582;-71
2022/02/03 00:59:00;;;;;;;;;1.25;1.25;;;;;;;;4994403;28;45528;-71
2022/02/03 01:01:28;;;;;;;;;0.75;0.75;;;;;;;;4972926;28;45443;-71
2022/02/03 01:03:55;;;;;;;;;2.00;2.00;;;;;;;;4991603;28;45397;-71
2022/02/03 01:06:22;;;;;;;;;1.50;1.50;;;;;;;;4994394;28;46669;-71
2022/02/03 01:08:50;;;;;;;;;1.00;1.00;;;;;;;;4994142;28;45477;-71
2022/02/03 01:11:21;;;;;;;;;1.00;1.00;;;;;;;;4993809;28;45437;-71
2022/02/03 01:19:12;;;;;;;;;1.00;1.00;;;;;;;;5080229;27;45444;-71
2022/02/03 01:36:55;;;;;;;;;2.75;1.50;;;;;;;;5074501;27;45300;-70
2022/02/03 01:46:01;;;;;;;;;2.33;1.00;;;;;;;;5076360;27;45431;-71
2022/02/03 01:49:04;;;;;;;;;2.00;1.00;;;;;;;;5078151;27;47332;-71
2022/02/03 01:51:40;;;;;;;;;2.00;1.75;;;;;;;;5074673;27;45320;-71
2022/02/03 01:54:06;;;;;;;;;3.67;1.00;;;;;;;;5073276;28;45383;-71
2022/02/03 01:56:45;;;;;;;;;1.25;1.25;;;;;;;;5073884;28;45525;-72
2022/02/03 01:59:21;;;;;;;;;3.50;1.00;;;;;;;;5073901;28;45533;-71
2022/02/03 02:01:48;;;;;;;;;1.75;1.75;;;;;;;;5077431;27;45277;-71
2022/02/03 02:04:32;;;;;;;;;3.00;1.00;;;;;;;;5074868;28;45330;-71
2022/02/03 02:07:05;;;;;;;;;1.00;1.00;;;;;;;;5073630;28;45535;-71
2022/02/03 02:09:44;;;;;;;;;3.00;1.00;;;;;;;;5071436;27;46088;-71
2022/02/03 02:12:34;;;;;;;;;1.25;1.25;;;;;;;;5071942;28;45506;-71
2022/02/03 02:18:11;;;;;;;;;0.33;0.33;;;;;;;;5061184;28;45209;-71
2022/02/03 02:39:58;;;;;;;;;1.50;1.00;;;;;;;;5072666;27;45682;-71
2022/02/03 02:45:13;;;;;;;;;2.33;1.00;;;;;;;;5072041;28;45360;-71
2022/02/03 02:47:47;;;;;;;;;0.00;0.00;;;;;;;;5061039;28;45471;-71
2022/02/03 02:50:21;;;;;;;;;3.25;1.75;;;;;;;;5059263;28;45222;-71
2022/02/03 02:52:56;;;;;;;;;2.00;2.00;;;;;;;;5070841;27;47032;-71
2022/02/03 02:55:35;;;;;;;;;2.25;2.25;;;;;;;;5072992;28;45552;-71
2022/02/03 03:01:46;;;;;;;;;2.50;1.25;;;;;;;;5071662;28;45364;-71
2022/02/03 03:31:55;;;;;;;;;1.75;1.75;;;;;;;;4996090;28;45385;-71
2022/02/03 03:34:47;;;;;;;;;1.00;0.75;;;;;;;;5009969;28;45683;-71
2022/02/03 03:37:14;;;;;;;;;2.25;1.00;;;;;;;;4997558;28;45377;-71
2022/02/03 03:39:47;;;;;;;;;0.75;0.75;;;;;;;;4979259;28;45529;-71
2022/02/03 03:42:14;;;;;;;;;2.25;1.00;;;;;;;;5026771;27;45441;-71
2022/02/03 03:44:41;;;;;;;;;1.50;1.50;;;;;;;;5076070;28;45352;-70
2022/02/03 03:47:10;;;;;;;;;1.75;1.75;;;;;;;;5076043;27;46691;-70
2022/02/03 03:49:43;;;;;;;;;3.25;2.00;;;;;;;;5077252;27;45439;-71
2022/02/03 03:52:22;;;;;;;;;2.50;0.50;;;;;;;;5074098;28;45446;-70
2022/02/03 03:55:00;;;;;;;;;2.00;1.25;;;;;;;;5075719;28;45584;-70
2022/02/03 04:33:59;;;;;;;;;1.75;1.75;;;;;;;;5075041;27;45293;-70
2022/02/03 04:53:39;;;;;;;;;3.25;1.00;;;;;;;;4992004;28;45523;-71
2022/02/03 05:02:05;;;;;;;;;1.00;1.00;;;;;;;;5004337;28;45447;-71
2022/02/03 05:04:53;;;;;;;;;1.25;0.25;;;;;;;;5012551;28;46125;-70
2022/02/03 05:07:56;;;;;;;;;1.67;1.67;;;;;;;;5010397;28;45411;-70
2022/02/03 05:13:17;;;;;;;;;1.00;1.00;;;;;;;;4942683;28;45406;-70
2022/02/03 05:27:10;;;;;;;;;1.00;1.00;;;;;;;;5014430;28;45591;-70
2022/02/03 05:43:57;;;;;;;;;1.00;1.00;;;;;;;;5015089;28;45475;-70
2022/02/03 05:46:53;;;;;;;;;1.75;1.25;;;;;;;;5025362;28;45633;-70
2022/02/03 06:02:51;;;;;;;;;2.50;1.00;;;;;;;;5072416;27;45604;-70
2022/02/03 06:08:00;;;;;;;;;2.00;2.00;;;;;;;;5076230;27;45432;-70
2022/02/03 06:13:14;;;;;;;;;1.25;1.25;;;;;;;;5073643;28;45363;-70
2022/02/03 06:16:05;;;;;;;;;1.00;1.00;;;;;;;;5073344;28;45453;-70
2022/02/03 06:29:03;;;;;;;;;1.00;1.00;;;;;;;;5075283;27;45339;-70
2022/02/03 06:31:28;;;;;;;;;2.00;1.00;;;;;;;;5075089;27;45331;-70
2022/02/03 06:33:54;;;;;;;;;1.00;1.00;;;;;;;;5076157;27;45265;-70
2022/02/03 06:36:20;;;;;;;;;1.00;1.00;;;;;;;;5071151;28;45766;-71
2022/02/03 06:38:45;;;;;;;;;2.75;1.00;;;;;;;;5073350;28;45479;-71
2022/02/03 06:41:10;;;;;;;;;2.25;2.25;;;;;;;;5072867;27;46325;-70
2022/02/03 06:43:35;;;;;;;;;1.67;1.67;;;;;;;;5074935;28;45418;-71
2022/02/03 06:46:06;;;;;;;;;4.00;1.00;;;;;;;;5073880;27;45894;-70
2022/02/03 06:48:33;;;;;;;;;1.00;1.00;;;;;;;;5071210;28;45776;-70
2022/02/03 06:51:07;;;;;;;;;1.00;1.00;;;;;;;;5066398;28;47059;-70
2022/02/03 06:53:36;;;;;;;;;1.00;1.00;;;;;;;;5072900;27;45548;-69
2022/02/03 06:56:32;;;;;;;;;2.25;1.25;;;;;;;;5073745;28;45519;-69
2022/02/03 06:58:52;;;;;;;;;0.75;0.75;;;;;;;;5073643;28;45446;-70
2022/02/03 07:01:27;;;;;;;;;2.00;2.00;;;;;;;;5070666;27;47402;-71
2022/02/03 07:03:59;;;;;;;;;3.67;1.00;;;;;;;;5072543;27;45457;-71
2022/02/03 07:06:25;;;;;;;;;1.75;1.75;;;;;;;;5071614;28;45544;-70
2022/02/03 07:08:51;;;;;;;;;2.50;1.25;;;;;;;;5053327;28;45742;-70
2022/02/03 07:11:19;;;;;;;;;1.00;1.00;;;;;;;;5074818;27;45471;-68
2022/02/03 07:13:45;;;;;;;;;1.00;1.00;;;;;;;;5088063;27;45424;-69
2022/02/03 07:16:10;;;;;;;;;0.00;0.00;;;;;;;;5078072;27;45556;-68
2022/02/03 07:18:35;;;;;;;;;2.00;1.00;;;;;;;;5076293;27;45403;-70
2022/02/03 07:21:01;;;;;;;;;2.25;1.00;;;;;;;;5073129;27;45524;-71
2022/02/03 07:23:26;;;;;;;;;2.75;1.00;;;;;;;;5087389;27;45462;-72
2022/02/03 07:25:51;;;;;;;;;2.00;2.00;;;;;;;;5082810;27;45398;-72
2022/02/03 07:28:16;;;;;;;;;1.00;1.00;;;;;;;;5073383;27;45546;-72
2022/02/03 07:30:41;;;;;;;;;1.00;1.00;;;;;;;;5072525;28;45484;-72
2022/02/03 07:33:07;;;;;;;;;1.50;1.00;;;;;;;;5075138;27;45363;-72
2022/02/03 07:35:34;;;;;;;;;0.67;0.67;;;;;;;;5074052;27;45365;-72
2022/02/03 07:38:02;;;;;;;;;1.00;1.00;;;;;;;;5073096;28;45473;-72
2022/02/03 07:40:27;;;;;;;;;2.00;2.00;;;;;;;;5072751;28;47709;-72
2022/02/03 07:42:54;;;;;;;;;3.25;2.00;;;;;;;;5070557;28;45390;-71
2022/02/03 07:45:20;;;;;;;;;3.00;2.00;;;;;;;;5070979;28;45451;-71
2022/02/03 07:47:49;;;;;;;;;1.00;1.00;;;;;;;;5073194;28;45548;-71
2022/02/03 07:50:15;;;;;;;;;1.00;1.00;;;;;;;;5056630;27;45638;-71
2022/02/03 07:52:40;;;;;;;;;1.75;1.75;;;;;;;;5075361;27;45455;-71
2022/02/03 07:55:06;;;;;;;;;3.00;2.00;;;;;;;;5074177;28;45323;-72
2022/02/03 07:57:32;;;;;;;;;1.00;1.00;;;;;;;;5073123;27;45518;-71
2022/02/03 08:00:00;;;;;;;;;1.50;1.50;;;;;;;;5074074;28;45599;-71
2022/02/03 08:02:25;;;;;;;;;1.00;1.00;;;;;;;;5075562;27;45508;-72
2022/02/03 08:04:51;;;;;;;;;1.00;1.00;;;;;;;;5077141;28;45497;-72
2022/02/03 08:07:19;;;;;;;;;2.75;2.00;;;;;;;;5075329;27;45483;-72
2022/02/03 08:12:17;;;;;;;;;1.75;1.00;;;;;;;;5077063;27;45451;-71
2022/02/03 08:14:47;;;;;;;;;0.75;0.75;;;;;;;;5090409;27;45424;-72
2022/02/03 08:17:27;;;;;;;;;2.00;2.00;;;;;;;;5076551;27;45356;-71
2022/02/03 08:19:59;;;;;;;;;1.75;1.25;;;;;;;;5073832;28;47200;-71
2022/02/03 08:22:29;;;;;;;;;1.00;1.00;;;;;;;;5077149;27;45484;-72
2022/02/03 08:25:10;;;;;;;;;3.00;3.00;;;;;;;;5073996;28;45370;-71
2022/02/03 08:32:57;;;;;;;;;1.00;1.00;;;;;;;;5072989;28;45478;-71
2022/02/03 08:35:37;;;;;;;;;1.00;1.00;;;;;;;;5083425;27;45340;-71
2022/02/03 08:38:16;;;;;;;;;1.75;1.75;;;;;;;;5075692;27;45495;-72
2022/02/03 08:40:57;;;;;;;;;3.00;1.75;;;;;;;;5076867;28;47179;-72
2022/02/03 08:43:32;;;;;;;;;1.50;1.00;;;;;;;;5076476;27;45364;-73
2022/02/03 08:45:59;;;;;;;;;2.00;2.00;;;;;;;;5074935;27;45561;-72
2022/02/03 08:48:24;;;;;;;;;1.00;1.00;;;;;;;;5078022;27;45317;-72
2022/02/03 08:50:50;;;;;;;;;1.00;1.00;;;;;;;;5074907;27;46149;-72
2022/02/03 08:53:22;;;;;;;;;1.00;1.00;;;;;;;;5074433;27;45844;-72
2022/02/03 08:56:01;;;;;;;;;3.00;3.00;;;;;;;;5072917;27;45377;-72
2022/02/03 09:55:27;;;;;;;;;2.00;2.00;;;;;;;;5017019;28;45989;-73
2022/02/03 09:57:59;;;;;;;;;2.50;2.50;;;;;;;;5017081;28;45502;-73
2022/02/03 10:00:33;;;;;;;;;4.25;3.00;;;;;;;;5017139;28;45661;-73
2022/02/03 10:03:00;;;;;;;;;4.00;3.00;;;;;;;;5016196;28;45423;-71
2022/02/03 10:05:40;;;;;;;;;3.00;3.00;;;;;;;;5013630;28;45724;-72
2022/02/03 10:08:10;;;;;;;;;4.00;2.75;;;;;;;;5013407;28;45503;-72
2022/02/03 10:10:35;;;;;;;;;3.50;3.25;;;;;;;;5017818;28;45272;-72
2022/02/03 10:13:14;;;;;;;;;2.25;2.25;;;;;;;;5010335;28;48681;-71
2022/02/03 10:15:39;;;;;;;;;3.00;3.00;;;;;;;;5013110;28;45578;-71
2022/02/03 10:18:19;;;;;;;;;5.00;3.00;;;;;;;;5045312;27;45356;-71
2022/02/03 10:20:47;;;;;;;;;3.75;3.75;;;;;;;;5083835;27;45550;-71
2022/02/03 10:23:16;;;;;;;;;4.00;3.00;;;;;;;;5052748;28;45470;-71
2022/02/03 10:25:41;;;;;;;;;3.00;3.00;;;;;;;;5055130;28;47211;-71
2022/02/03 10:28:11;;;;;;;;;4.00;3.00;;;;;;;;5055115;28;45313;-72
2022/02/03 10:30:48;;;;;;;;;3.00;3.00;;;;;;;;5056180;28;45457;-71
2022/02/03 10:33:14;;;;;;;;;3.50;2.00;;;;;;;;5056174;28;45542;-71
2022/02/03 10:35:54;;;;;;;;;5.00;2.25;;;;;;;;5064886;28;47117;-71
2022/02/03 10:44:13;;;;;;;;;2.00;2.00;;;;;;;;4992995;28;45619;-72
2022/02/03 10:47:11;;;;;;;;;3.75;3.75;;;;;;;;5012514;28;45518;-72
2022/02/03 10:50:10;;;;;;;;;3.25;3.00;;;;;;;;5012683;28;45361;-71
2022/02/03 11:06:12;;;;;;;;;3.00;3.00;;;;;;;;5009962;28;45442;-71
2022/02/03 11:08:55;;;;;;;;;3.75;3.00;;;;;;;;5009393;28;45761;-72
2022/02/03 11:11:31;;;;;;;;;3.00;3.00;;;;;;;;4995780;28;45389;-71
2022/02/03 11:13:57;;;;;;;;;3.00;3.00;;;;;;;;5011870;28;45311;-72
2022/02/03 11:16:23;;;;;;;;;3.00;3.00;;;;;;;;5001033;28;45352;-71
2022/02/03 11:18:49;;;;;;;;;4.00;4.00;;;;;;;;5012148;28;47374;-72
2022/02/03 11:21:15;;;;;;;;;3.75;3.50;;;;;;;;5054919;27;46398;-71
2022/02/03 11:23:47;;;;;;;;;4.00;4.00;;;;;;;;5055547;28;45562;-71
2022/02/03 12:04:43;;;;;;;;;2.75;2.75;;;;;;;;4954613;28;45452;-71
2022/02/03 12:18:11;;;;;;;;;4.00;4.00;;;;;;;;5014106;28;45572;-72
2022/02/03 12:26:14;;;;;;;;;5.25;4.00;;;;;;;;5054531;28;45556;-72
2022/02/03 12:28:51;;;;;;;;;5.00;3.75;;;;;;;;5056751;28;45327;-72
2022/02/03 12:39:09;;;;;;;;;2.75;2.75;;;;;;;;5053353;28;45667;-72
2022/02/03 12:44:04;;;;;;;;;2.00;2.00;;;;;;;;5055458;28;45592;-72
2022/02/03 12:46:29;;;;;;;;;4.00;4.00;;;;;;;;5055076;28;45405;-72
2022/02/03 12:48:59;;;;;;;;;8.50;3.75;;;;;;;;5052304;28;45373;-72
2022/02/03 12:51:25;;;;;;;;;4.75;4.25;;;;;;;;5052321;28;45416;-72
2022/02/03 12:53:51;;;;;;;;;4.00;3.00;;;;;;;;5054251;28;47361;-72
2022/02/03 12:56:20;;;;;;;;;3.00;3.00;;;;;;;;5053522;28;45412;-72
2022/02/03 12:58:49;;;;;;;;;3.00;3.00;;;;;;;;5055508;28;45453;-72
2022/02/03 13:01:27;;;;;;;;;4.25;2.00;;;;;;;;5054789;28;45640;-72
2022/02/03 13:03:53;;;;;;;;;4.50;3.50;;;;;;;;5056639;28;46562;-72
2022/02/03 13:06:21;;;;;;;;;4.75;4.00;;;;;;;;5063659;28;45664;-72
2022/02/03 13:08:52;;;;;;;;;4.00;4.00;;;;;;;;5075249;27;45423;-72
2022/02/03 13:11:23;;;;;;;;;2.00;2.00;;;;;;;;5060898;28;45458;-72
2022/02/03 13:27:30;;;;;;;;;4.00;2.75;;;;;;;;4994976;28;45448;-72
2022/02/03 13:32:30;;;;;;;;;4.00;3.00;;;;;;;;4994737;28;45462;-72
2022/02/03 13:37:31;;;;;;;;;5.00;4.00;;;;;;;;4994061;28;45460;-72
2022/02/03 13:40:04;;;;;;;;;3.00;3.00;;;;;;;;4979511;28;45416;-71
2022/02/03 13:42:30;;;;;;;;;4.00;3.50;;;;;;;;4998148;28;45447;-72
2022/02/03 13:45:09;;;;;;;;;3.50;2.75;;;;;;;;4994626;28;45833;-72
2022/02/03 13:47:37;;;;;;;;;4.50;4.50;;;;;;;;4994408;28;45373;-72
2022/02/03 13:50:20;;;;;;;;;5.00;4.00;;;;;;;;5002109;28;45440;-72
2022/02/03 14:13:31;;;;;;;;;4.25;3.00;;;;;;;;4991495;28;45420;-72
2022/02/03 14:20:45;;;;;;;;;3.00;3.00;;;;;;;;4992260;28;45899;-72
2022/02/03 14:26:47;;;;;;;;;3.50;3.50;;;;;;;;4991856;28;45214;-72
2022/02/03 14:28:40;;;;;;;;;3.25;3.25;;;;;;;;5011841;28;45431;-72
2022/02/03 14:31:08;;;;;;;;;4.00;2.75;;;;;;;;5071289;28;45621;-72
2022/02/03 14:33:37;;;;;;;;;3.00;3.00;;;;;;;;5070854;28;45421;-72
2022/02/03 14:36:13;;;;;;;;;2.25;2.25;;;;;;;;5083349;27;45270;-72
2022/02/03 14:38:48;;;;;;;;;2.50;2.50;;;;;;;;5072586;27;46179;-72
2022/02/03 14:41:26;;;;;;;;;4.00;4.00;;;;;;;;5073498;28;45445;-72
2022/02/03 14:43:51;;;;;;;;;3.00;3.00;;;;;;;;5087532;27;45418;-72
2022/02/03 14:46:17;;;;;;;;;3.00;2.50;;;;;;;;5073945;28;45606;-72
2022/02/03 14:48:44;;;;;;;;;2.50;2.00;;;;;;;;5071941;28;46368;-72
2022/02/03 14:51:12;;;;;;;;;3.75;3.00;;;;;;;;5071854;27;45526;-72
2022/02/03 14:53:54;;;;;;;;;5.00;3.25;;;;;;;;5073009;28;45358;-72
2022/02/03 14:59:03;;;;;;;;;2.75;2.00;;;;;;;;5072939;28;45474;-72
2022/02/03 15:01:32;;;;;;;;;3.50;3.50;;;;;;;;5075382;28;45570;-72
2022/02/03 15:03:58;;;;;;;;;3.00;2.00;;;;;;;;5074527;28;45258;-72
2022/02/03 15:06:26;;;;;;;;;4.00;3.00;;;;;;;;5075132;27;45330;-72
2022/02/03 15:09:16;;;;;;;;;5.00;3.75;;;;;;;;5075160;28;47238;-71
2022/02/03 15:11:56;;;;;;;;;3.25;3.25;;;;;;;;5060412;28;45522;-72
2022/02/03 15:14:21;;;;;;;;;3.00;3.00;;;;;;;;5078588;27;45439;-72
2022/02/03 15:16:47;;;;;;;;;4.00;4.00;;;;;;;;5078441;28;45423;-72
2022/02/03 15:19:12;;;;;;;;;3.25;3.00;;;;;;;;5077220;28;45952;-72
2022/02/03 15:21:38;;;;;;;;;3.00;3.00;;;;;;;;5077712;27;50665;-72
2022/02/03 15:24:04;;;;;;;;;3.00;3.00;;;;;;;;5075323;27;45589;-72
2022/02/03 15:26:29;;;;;;;;;4.00;3.25;;;;;;;;5085503;27;45417;-72
2022/02/03 15:28:55;;;;;;;;;4.00;3.00;;;;;;;;5050217;28;47200;-72
2022/02/03 15:31:22;;;;;;;;;4.00;4.00;;;;;;;;5077241;27;45355;-72
2022/02/03 15:33:56;;;;;;;;;4.25;4.00;;;;;;;;5076153;27;45457;-72
2022/02/03 15:36:22;;;;;;;;;4.25;2.50;;;;;;;;5074816;28;45278;-72
2022/02/03 15:38:49;;;;;;;;;2.75;2.25;;;;;;;;5075018;27;46980;-72
2022/02/03 15:41:22;;;;;;;;;3.50;2.25;;;;;;;;5074988;28;45486;-72
2022/02/03 15:43:49;;;;;;;;;4.75;4.25;;;;;;;;5074673;28;45262;-72
2022/02/03 15:46:17;;;;;;;;;4.00;4.00;;;;;;;;5076740;28;45469;-72
2022/02/03 15:48:51;;;;;;;;;4.00;4.00;;;;;;;;5077987;27;47131;-72
2022/02/03 16:00:34;;;;;;;;;4.75;4.00;;;;;;;;4994595;28;45317;-72
2022/02/03 16:18:41;;;;;;;;;4.00;4.00;;;;;;;;4950592;28;45557;-72
2022/02/03 16:23:58;;;;;;;;;6.75;3.75;;;;;;;;4953909;28;45514;-72
2022/02/03 16:53:21;;;;;;;;;3.25;3.00;;;;;;;;5041786;28;45435;-72
2022/02/03 16:55:48;;;;;;;;;4.00;4.00;;;;;;;;5077402;28;45398;-72
2022/02/03 16:58:13;;;;;;;;;4.25;3.00;;;;;;;;5072403;27;45332;-72
2022/02/03 17:00:48;;;;;;;;;4.50;3.50;;;;;;;;5071957;28;45731;-73
2022/02/03 17:03:14;;;;;;;;;6.25;4.50;;;;;;;;5073893;27;45728;-72
2022/02/03 17:05:42;;;;;;;;;3.75;3.50;;;;;;;;5075161;27;45371;-72
2022/02/03 17:08:07;;;;;;;;;2.50;2.50;;;;;;;;5074495;28;45295;-71
2022/02/03 17:10:33;;;;;;;;;4.00;4.00;;;;;;;;5076977;27;45256;-72
2022/02/03 17:13:02;;;;;;;;;2.25;2.25;;;;;;;;5059024;27;48120;-72
2022/02/03 17:15:28;;;;;;;;;3.50;3.50;;;;;;;;5079651;27;45501;-72
2022/02/03 17:18:04;;;;;;;;;1.75;1.75;;;;;;;;5073489;27;45329;-72
2022/02/03 17:20:35;;;;;;;;;4.25;4.00;;;;;;;;5073557;28;45355;-72
2022/02/03 17:23:04;;;;;;;;;4.00;3.00;;;;;;;;5074699;27;45710;-72
2022/02/03 17:25:36;;;;;;;;;4.75;4.00;;;;;;;;5073614;27;45471;-73
2022/02/03 17:28:13;;;;;;;;;2.50;2.50;;;;;;;;5072613;28;45389;-71
2022/02/03 17:30:46;;;;;;;;;3.00;3.00;;;;;;;;5057714;28;45498;-71
2022/02/03 17:53:15;;;;;;;;;3.00;3.00;;;;;;;;5076171;27;45509;-72
2022/02/03 18:06:52;;;;;;;;;2.25;2.00;;;;;;;;5073192;27;45401;-71
2022/02/03 18:09:11;;;;;;;;;5.50;3.00;;;;;;;;5071639;27;45307;-71
2022/02/03 18:17:07;;;;;;;;;3.75;3.75;;;;;;;;5072653;28;45348;-73
2022/02/03 18:17:35;;;;;;;;;4.50;4.00;;;;;;;;5061061;27;45335;-71
2022/02/03 18:51:26;;;;;;;;;2.00;2.00;;;;;;;;5074045;28;45465;-72
2022/02/03 18:54:13;;;;;;;;;2.00;2.00;;;;;;;;5073312;28;45329;-72
2022/02/03 18:57:14;;;;;;;;;3.75;3.75;;;;;;;;5084614;27;46379;-72
2022/02/03 20:08:37;;;;;;;;;3.00;3.00;;;;;;;;5060084;28;45599;-71
2022/02/03 20:11:02;;;;;;;;;4.00;3.00;;;;;;;;5075875;28;45307;-72
2022/02/03 20:13:27;;;;;;;;;3.00;3.00;;;;;;;;5077331;28;46288;-71
2022/02/03 20:15:53;;;;;;;;;3.50;2.25;;;;;;;;5073679;28;45379;-72
2022/02/03 20:18:19;;;;;;;;;2.75;2.50;;;;;;;;5075093;27;45395;-70
2022/02/03 20:20:45;;;;;;;;;2.25;2.25;;;;;;;;5057229;27;45735;-70
2022/02/03 20:23:13;;;;;;;;;3.00;3.00;;;;;;;;5078764;27;45579;-71
2022/02/03 20:25:42;;;;;;;;;4.75;3.50;;;;;;;;5082595;27;45698;-71
2022/02/03 20:28:08;;;;;;;;;3.00;3.00;;;;;;;;5085252;27;45374;-71
2022/02/03 20:30:34;;;;;;;;;1.25;1.25;;;;;;;;5085835;27;45496;-73
2022/02/03 20:32:59;;;;;;;;;2.50;2.50;;;;;;;;5084177;27;46534;-73
2022/02/03 20:35:24;;;;;;;;;2.75;2.75;;;;;;;;5082840;27;45252;-73
2022/02/03 20:37:50;;;;;;;;;4.00;4.00;;;;;;;;5082689;27;45579;-72
2022/02/03 20:40:15;;;;;;;;;3.00;3.00;;;;;;;;5083566;27;45457;-71
2022/02/03 20:42:40;;;;;;;;;2.00;1.50;;;;;;;;5082977;27;46089;-72
2022/02/03 20:45:06;;;;;;;;;2.00;2.00;;;;;;;;5080883;27;45361;-72
2022/02/03 20:47:32;;;;;;;;;1.50;1.50;;;;;;;;5081926;27;45525;-71
2022/02/03 20:49:58;;;;;;;;;2.75;2.75;;;;;;;;5083793;27;45360;-71
2022/02/03 20:52:23;;;;;;;;;3.00;2.75;;;;;;;;5087040;27;47594;-72
2022/02/03 20:54:48;;;;;;;;;3.50;3.00;;;;;;;;5083587;27;45458;-71
2022/02/03 20:57:14;;;;;;;;;3.00;3.00;;;;;;;;5080390;27;45477;-72
2022/02/03 21:02:36;;;;;;;;;3.00;3.00;;;;;;;;5075859;27;45275;-72
2022/02/03 21:05:07;;;;;;;;;2.00;2.00;;;;;;;;5074900;27;45873;-72
2022/02/03 21:07:33;;;;;;;;;2.00;2.00;;;;;;;;5074780;27;45304;-71
2022/02/03 21:10:01;;;;;;;;;2.75;2.00;;;;;;;;5081479;27;45414;-71
2022/02/03 21:12:27;;;;;;;;;3.00;3.00;;;;;;;;5078518;27;46415;-72
2022/02/03 21:14:54;;;;;;;;;2.00;2.00;;;;;;;;5072672;27;45465;-72
2022/02/03 21:17:22;;;;;;;;;3.50;2.50;;;;;;;;5069958;27;45494;-71
2022/02/03 21:19:47;;;;;;;;;2.50;2.00;;;;;;;;5072657;28;45583;-70
2022/02/03 21:22:12;;;;;;;;;2.00;2.00;;;;;;;;5074406;27;46092;-70
2022/02/03 21:24:37;;;;;;;;;1.50;1.50;;;;;;;;5073525;27;45406;-70
2022/02/03 21:27:04;;;;;;;;;4.50;3.00;;;;;;;;5081113;27;45438;-72
2022/02/03 21:29:29;;;;;;;;;1.50;1.50;;;;;;;;5080081;27;45583;-72
2022/02/03 21:31:54;;;;;;;;;2.00;2.00;;;;;;;;5082584;27;45605;-71
2022/02/03 21:34:22;;;;;;;;;3.75;1.25;;;;;;;;5082459;27;45581;-72
2022/02/03 21:36:53;;;;;;;;;2.75;2.75;;;;;;;;5074297;27;45355;-72
2022/02/03 21:39:18;;;;;;;;;2.50;2.50;;;;;;;;5073839;27;45425;-72
2022/02/03 21:41:44;;;;;;;;;1.25;1.25;;;;;;;;5075473;27;46409;-69
2022/02/03 21:44:12;;;;;;;;;1.75;1.75;;;;;;;;5072679;27;45466;-71
2022/02/03 21:46:38;;;;;;;;;2.25;2.00;;;;;;;;5082834;27;45543;-71
2022/02/03 21:49:03;;;;;;;;;1.25;1.25;;;;;;;;5074267;27;45485;-71
2022/02/03 21:51:28;;;;;;;;;2.00;2.00;;;;;;;;5073731;27;45319;-71
2022/02/03 21:53:54;;;;;;;;;2.25;2.00;;;;;;;;5073279;28;45402;-71
2022/02/03 21:56:20;;;;;;;;;2.00;2.00;;;;;;;;5068476;28;48533;-72
2022/02/03 21:58:46;;;;;;;;;1.75;1.75;;;;;;;;5075497;28;45312;-72
2022/02/03 22:01:11;;;;;;;;;1.25;1.25;;;;;;;;5073120;28;45597;-72
2022/02/03 22:03:39;;;;;;;;;1.75;1.00;;;;;;;;5071962;28;45469;-71
2022/02/03 22:06:07;;;;;;;;;2.00;2.00;;;;;;;;5073347;28;45910;-72
2022/02/03 22:08:33;;;;;;;;;1.00;1.00;;;;;;;;5072287;28;45304;-71
2022/02/03 22:11:00;;;;;;;;;2.50;2.50;;;;;;;;5073411;28;46092;-70
2022/02/03 22:13:33;;;;;;;;;2.00;2.00;;;;;;;;5076711;27;45453;-70
2022/02/03 22:15:58;;;;;;;;;2.25;2.25;;;;;;;;5072539;28;45319;-70
2022/02/03 22:18:24;;;;;;;;;3.75;3.25;;;;;;;;5071980;28;45441;-70
2022/02/03 22:21:01;;;;;;;;;1.00;1.00;;;;;;;;5071859;28;47360;-69
2022/02/03 22:23:48;;;;;;;;;2.50;2.00;;;;;;;;5071326;28;45406;-70
2022/02/03 22:26:35;;;;;;;;;2.00;2.00;;;;;;;;5070351;28;45477;-69
2022/02/03 22:47:24;;;;;;;;;1.00;1.00;;;;;;;;5073083;28;45407;-68
2022/02/03 22:49:49;;;;;;;;;2.50;2.50;;;;;;;;5061100;28;45358;-68
2022/02/03 22:52:16;;;;;;;;;2.00;2.00;;;;;;;;5058824;28;46589;-69
2022/02/03 22:54:41;;;;;;;;;1.75;1.75;;;;;;;;5058441;27;45583;-69
2022/02/03 22:57:08;;;;;;;;;2.00;2.00;;;;;;;;5060346;28;45347;-69
2022/02/03 23:02:17;;;;;;;;;2.00;2.00;;;;;;;;5060209;28;46144;-71
2022/02/03 23:04:42;;;;;;;;;0.75;0.75;;;;;;;;5066181;27;45457;-70
2022/02/03 23:07:20;;;;;;;;;2.00;1.00;;;;;;;;5059725;28;45519;-70
2022/02/03 23:10:00;;;;;;;;;1.25;1.25;;;;;;;;5060729;28;45427;-69
2022/02/03 23:15:30;;;;;;;;;2.00;2.00;;;;;;;;5067224;27;45481;-71
2022/02/03 23:18:00;;;;;;;;;2.00;2.00;;;;;;;;5060295;28;45436;-70
2022/02/03 23:20:39;;;;;;;;;2.00;2.00;;;;;;;;5054795;28;45594;-70
2022/02/03 23:23:04;;;;;;;;;2.00;2.00;;;;;;;;5070403;28;46365;-70
2022/02/03 23:25:29;;;;;;;;;1.50;1.00;;;;;;;;5058578;28;45386;-70
2022/02/03 23:30:25;;;;;;;;;1.50;1.50;;;;;;;;5062782;28;45418;-70
2022/02/03 23:32:53;;;;;;;;;1.25;1.25;;;;;;;;5056747;28;47085;-70
2022/02/03 23:35:19;;;;;;;;;1.75;1.75;;;;;;;;5058087;28;45347;-70
2022/02/03 23:37:51;;;;;;;;;3.25;1.50;;;;;;;;5061636;28;45368;-70
